ZSQD Airport Information

Runway Information
Runway 17 Length 11155 ft width 148 ft
Elevation 33 ft Threshold 0 ft Heading 166
Runway 35 Length 11155 ft Width 148 ft
Elevation 33 ft Threshold 0 ft Heading 346
Airport Frequencies
Type APP Name QINGDAO Frequency 119.4 MHZ
Type ATIS Name ATIS Frequency 127.2 MHZ
Type GND Name QINGDAO GN Frequency 121.65 MHZ
Type TWR Name QINGDAO TW Frequency 118.7 MHZ
Airport Navaids
Type VOR-DME Name Qingdao Frequency 117500 KHZ
Type VOR-DME Name Xuejiadao Frequency 117000 KHZ
Airport Weather Information & NOTAM
ADDS - METARS form results

(1103 UTC 19 September 2018)
Data provider http://aviationweather.gov/metar/data/
 
Forecast for: ZSQD (QINGDAO/TSINGTAO, CN)
Text: TAF ZSQD 190910Z 1912/2012 03003MPS 3500 -RA BR BKN020 TX22/2006Z TN18/1921Z
Forecast period: 1200 UTC 19 September 2018 to 1200 UTC 20 September 2018
Forecast type: FROM: standard forecast or significant change
Winds: from the NNE (30 degrees) at 7 MPH (6 knots; 3.1 m/s)
Visibility: 2.17 miles (3.49 km)
Ceiling: 2000 feet AGL
Clouds: broken clouds at 2000 feet AGL
Weather: -RA BR  (light rain, mist)